TimeEDT,TemperatureF,Dew PointF,Humidity,Sea Level PressureIn,VisibilityMPH,Wind Direction,Wind SpeedMPH,Gust SpeedMPH,PrecipitationIn,Events,Conditions,WindDirDegrees,DateUTC
12:01 AM,68.0,66.2,94,30.10,3.0,Calm,Calm,-,N/A,,Mostly Cloudy,0,2013-09-11 04:01:00
12:11 AM,68.0,66.2,94,30.10,2.5,Calm,Calm,-,N/A,,Mostly Cloudy,0,2013-09-11 04:11:00
12:33 AM,68.0,66.2,94,30.10,1.8,Calm,Calm,-,N/A,,Overcast,0,2013-09-11 04:33:00
12:41 AM,68.0,66.2,94,30.10,2.5,Calm,Calm,-,N/A,,Overcast,0,2013-09-11 04:41:00
12:52 AM,68.0,66.9,96,30.10,2.0,Calm,Calm,-,N/A,,Overcast,0,2013-09-11 04:52:00
12:59 AM,66.2,66.2,100,30.10,0.8,Calm,Calm,-,N/A,,Overcast,0,2013-09-11 04:59:00
1:08 AM,66.2,66.2,100,30.10,1.0,Calm,Calm,-,N/A,,Overcast,0,2013-09-11 05:08:00
1:20 AM,66.2,66.2,100,30.10,0.8,Calm,Calm,-,N/A,,Mist,0,2013-09-11 05:20:00
1:44 AM,66.2,66.2,100,30.09,1.8,Calm,Calm,-,N/A,,Overcast,0,2013-09-11 05:44:00
1:47 AM,66.2,66.2,100,30.09,3.0,Calm,Calm,-,N/A,,Overcast,0,2013-09-11 05:47:00
1:52 AM,66.9,66.0,97,30.09,2.5,Calm,Calm,-,N/A,,Overcast,0,2013-09-11 05:52:00
2:23 AM,66.2,64.4,94,30.08,0.8,Calm,Calm,-,N/A,,Mist,0,2013-09-11 06:23:00
2:39 AM,66.2,64.4,94,30.09,2.5,Calm,Calm,-,N/A,,Mostly Cloudy,0,2013-09-11 06:39:00
2:52 AM,64.9,64.0,97,30.08,1.0,Calm,Calm,-,N/A,,Mist,0,2013-09-11 06:52:00
2:59 AM,66.2,64.4,94,30.08,0.5,Calm,Calm,-,N/A,Fog,Fog,0,2013-09-11 06:59:00
3:28 AM,64.4,64.4,100,30.08,1.0,Calm,Calm,-,N/A,,Overcast,0,2013-09-11 07:28:00
3:32 AM,64.4,64.4,100,30.08,4.0,Calm,Calm,-,N/A,,Overcast,0,2013-09-11 07:32:00
3:52 AM,66.0,64.0,93,30.08,4.0,Calm,Calm,-,N/A,,Mostly Cloudy,0,2013-09-11 07:52:00
3:57 AM,66.2,64.4,94,30.08,1.8,Calm,Calm,-,N/A,,Mostly Cloudy,0,2013-09-11 07:57:00
4:11 AM,66.2,64.4,94,30.08,3.0,Calm,Calm,-,N/A,,Mostly Cloudy,0,2013-09-11 08:11:00
4:18 AM,66.2,64.4,94,30.08,4.0,Calm,Calm,-,N/A,,Overcast,0,2013-09-11 08:18:00
4:30 AM,64.4,64.4,100,30.08,5.0,Calm,Calm,-,N/A,,Overcast,0,2013-09-11 08:30:00
4:52 AM,66.0,64.9,96,30.07,4.0,Calm,Calm,-,N/A,,Overcast,0,2013-09-11 08:52:00
5:23 AM,66.2,64.4,94,30.08,1.8,Calm,Calm,-,N/A,,Overcast,0,2013-09-11 09:23:00
5:33 AM,64.4,64.4,100,30.08,0.5,Calm,Calm,-,N/A,Fog,Fog,0,2013-09-11 09:33:00
5:48 AM,64.4,64.4,100,30.08,0.2,Calm,Calm,-,N/A,Fog,Fog,0,2013-09-11 09:48:00
5:52 AM,64.9,64.0,97,30.08,0.2,Calm,Calm,-,N/A,Fog,Fog,0,2013-09-11 09:52:00
6:52 AM,64.9,64.0,97,30.09,0.2,Calm,Calm,-,N/A,Fog,Fog,0,2013-09-11 10:52:00
7:52 AM,66.0,64.9,96,30.11,0.2,Calm,Calm,-,N/A,Fog,Fog,0,2013-09-11 11:52:00
8:11 AM,66.2,66.2,100,30.11,0.5,Calm,Calm,-,N/A,Fog,Fog,0,2013-09-11 12:11:00
8:30 AM,68.0,66.2,94,30.11,1.8,Calm,Calm,-,N/A,,Mostly Cloudy,0,2013-09-11 12:30:00
8:38 AM,69.8,68.0,94,30.11,2.5,Calm,Calm,-,N/A,,Mostly Cloudy,0,2013-09-11 12:38:00
8:45 AM,69.8,69.8,100,30.11,3.0,Calm,Calm,-,N/A,,Scattered Clouds,0,2013-09-11 12:45:00
8:52 AM,70.0,69.1,97,30.11,4.0,Calm,Calm,-,N/A,,Partly Cloudy,0,2013-09-11 12:52:00
9:52 AM,78.1,72.0,81,30.11,5.0,South,3.5,-,N/A,,Haze,190,2013-09-11 13:52:00
10:52 AM,82.9,73.0,72,30.10,6.0,South,5.8,-,N/A,,Haze,180,2013-09-11 14:52:00
11:52 AM,86.0,73.9,67,30.08,7.0,SSW,5.8,-,N/A,,Clear,210,2013-09-11 15:52:00
12:52 PM,89.1,75.0,63,30.06,7.0,Variable,5.8,-,N/A,,Clear,0,2013-09-11 16:52:00
1:52 PM,91.0,73.9,57,30.04,8.0,South,5.8,-,N/A,,Clear,190,2013-09-11 17:52:00
2:52 PM,91.9,73.0,54,30.02,9.0,South,10.4,-,N/A,,Clear,190,2013-09-11 18:52:00
3:52 PM,91.9,73.9,55,30.01,8.0,SSW,8.1,17.3,N/A,,Clear,200,2013-09-11 19:52:00
4:52 PM,90.0,75.0,61,30.00,6.0,SW,8.1,-,N/A,,Haze,220,2013-09-11 20:52:00
5:52 PM,86.0,73.9,67,29.99,6.0,South,11.5,-,N/A,,Haze,190,2013-09-11 21:52:00
6:52 PM,82.0,72.0,71,30.01,7.0,SSW,9.2,-,N/A,,Clear,200,2013-09-11 22:52:00
7:52 PM,80.1,71.1,74,30.01,9.0,South,6.9,-,N/A,,Clear,170,2013-09-11 23:52:00
8:52 PM,79.0,70.0,74,30.03,9.0,Calm,Calm,-,N/A,,Clear,0,2013-09-12 00:52:00
9:52 PM,77.0,70.0,79,30.03,8.0,Calm,Calm,-,N/A,,Scattered Clouds,0,2013-09-12 01:52:00
10:52 PM,77.0,70.0,79,30.04,9.0,Calm,Calm,-,N/A,,Partly Cloudy,0,2013-09-12 02:52:00
11:52 PM,73.9,70.0,87,30.01,7.0,Calm,Calm,-,N/A,,Clear,0,2013-09-12 03:52:00